Dart — OUOV2 — position and weather

sailwx.info

Track history (hours):
 
Tides and Currents Weather Stations Pressure Air Temp Water Temp Dewpoint Dewpoint Depression Visibility Wind Speed Wind Dir Waves Ship Positions

Dart

Last reported at 2017-Feb-19 14:33 UTC. Time now 2017-Feb-19 14:36 UTC.
Position N 68°56' E 017°05'.

Length 67 m; draft 3.8 m.

Type: Tanker. MMSI: 219416000.

Date/timePositionNaut miles runAvg speedWind from/ knotsBaromVisibWave heightAir tempDewpointWater temp
2017-Feb-19 14:33N 68°56' E 017°05'1111.1
2017-Feb-19 13:33N 68°46' E 016°49'1111.0
2017-Feb-19 12:33N 68°37' E 016°34'9 8.6
2017-Feb-19 11:33N 68°33' E 016°13'1010.5
2017-Feb-19 10:33N 68°23' E 016°01'1110.5
2017-Feb-19 09:33N 68°15' E 015°43'1110.7
2017-Feb-19 08:33N 68°08' E 015°21'1111.0
2017-Feb-19 07:33N 68°01' E 014°59'1110.6
2017-Feb-19 06:33N 67°54' E 014°38'1010.3
2017-Feb-19 05:32N 67°44' E 014°31'1110.9
2017-Feb-19 04:33N 67°33' E 014°30'1110.9
2017-Feb-19 03:33N 67°22' E 014°24'1110.8
2017-Feb-19 02:33N 67°13' E 014°09'1110.7
2017-Feb-19 01:33N 67°04' E 013°55'1010.1
2017-Feb-19 00:33N 66°58' E 013°34'9 9.4
2017-Feb-18 23:33N 66°51' E 013°19'1110.7
2017-Feb-18 22:33N 66°41' E 013°09'9 9.5
2017-Feb-18 21:33N 66°32' E 012°58'1010.3
2017-Feb-18 20:33N 66°22' E 012°58'1110.7
2017-Feb-18 19:33N 66°12' E 012°52'1010.0
2017-Feb-18 18:32N 66°03' E 012°38'1110.5
2017-Feb-18 17:33N 65°55' E 012°23'1010.5
2017-Feb-18 16:33N 65°44' E 012°18'1010.5
2017-Feb-18 15:33N 65°35' E 012°09'1010.4
2017-Feb-18 14:33N 65°26' E 011°56'9 9.0
2017-Feb-18 13:33N 65°17' E 011°58'1010.4
2017-Feb-18 12:33N 65°07' E 011°49'1010.2
2017-Feb-18 11:33N 64°59' E 011°35'1110.7
2017-Feb-18 10:33N 64°52' E 011°16'1110.5
2017-Feb-18 09:33N 64°44' E 010°59'1010.4
2017-Feb-18 08:33N 64°37' E 010°42'1110.6
2017-Feb-18 07:33N 64°28' E 010°29'9 9.4
2017-Feb-18 06:33N 64°19' E 010°24'1110.5
2017-Feb-18 05:33N 64°11' E 010°09'1110.8
2017-Feb-18 04:33N 64°03' E 009°50'10 9.6
2017-Feb-18 03:33N 63°54' E 009°46'1111.0
2017-Feb-18 02:33N 63°45' E 009°33'1010.4
2017-Feb-18 01:33N 63°35' E 009°25'1212.2
2017-Feb-18 00:33N 63°29' E 009°01'1211.8
2017-Feb-17 23:33N 63°24' E 008°37'1111.4
2017-Feb-17 22:33N 63°18' E 008°16'1211.6
2017-Feb-17 21:33N 63°12' E 007°53'1010.1
2017-Feb-17 20:33N 63°04' E 007°41'1 0.7
2017-Feb-17 19:33N 63°03' E 007°40'0 0.0
2017-Feb-17 18:33N 63°03' E 007°40'0 0.0
2017-Feb-17 17:33N 63°03' E 007°40'0 0.0
2017-Feb-17 16:33N 63°03' E 007°40'0 0.2
2017-Feb-17 15:33N 63°04' E 007°40'0 0.4
2017-Feb-17 14:31N 63°03' E 007°40'0 0.0
2017-Feb-17 13:31N 63°03' E 007°40'0 0.0
2017-Feb-17 12:31N 63°03' E 007°40'0 0.0
2017-Feb-17 11:31N 63°03' E 007°40'3 2.8
2017-Feb-17 10:33N 63°06' E 007°41'8 8.2
2017-Feb-17 09:33N 63°04' E 007°23'9 9.1
2017-Feb-17 08:33N 63°01' E 007°05'10 9.4
2017-Feb-17 07:33N 62°55' E 006°48'1010.1
2017-Feb-17 06:33N 62°47' E 006°36'10 9.8
2017-Feb-17 05:32N 62°39' E 006°23'10 9.8
2017-Feb-17 04:32N 62°31' E 006°09'8 8.3
2017-Feb-17 03:33N 62°23' E 006°06'9 8.8
2017-Feb-17 02:33N 62°15' E 005°57'1010.0
2017-Feb-17 01:32N 62°11' E 005°38'9 9.1
2017-Feb-17 00:33N 62°11' E 005°19'7 7.3
2017-Feb-16 23:34N 62°09' E 005°04'1010.0
2017-Feb-16 22:33N 61°59' E 005°10'8 8.4
2017-Feb-16 21:33N 61°51' E 005°16'9 9.5
2017-Feb-16 20:32N 61°45' E 005°00'8 8.2
2017-Feb-16 19:33N 61°37' E 005°03'1 0.9
2017-Feb-16 18:31N 61°37' E 005°04'0 0.0
2017-Feb-16 17:31N 61°37' E 005°04'0 0.0
2017-Feb-16 16:31N 61°37' E 005°04'0 0.0
2017-Feb-16 15:28N 61°37' E 005°04'0 0.0
2017-Feb-16 14:31N 61°37' E 005°04'0 0.0
2017-Feb-16 13:31N 61°37' E 005°04'0 0.0
2017-Feb-16 12:31N 61°37' E 005°04'1 0.8
2017-Feb-16 11:33N 61°37' E 005°03'8 7.8
2017-Feb-16 10:33N 61°30' E 004°59'10 9.9
2017-Feb-16 09:33N 61°20' E 005°03'7 7.4
2017-Feb-16 08:33N 61°13' E 004°59'10 9.6
2017-Feb-16 07:33N 61°03' E 004°57'1010.0
2017-Feb-16 06:33N 60°55' E 004°46'1110.7
2017-Feb-16 05:33N 60°44' E 004°48'1111.5
2017-Feb-16 04:33N 60°34' E 004°56'1111.0
2017-Feb-16 03:33N 60°24' E 005°08'9 9.6
2017-Feb-16 02:33N 60°15' E 005°10'1111.0
2017-Feb-16 01:33N 60°05' E 005°20'1110.5
2017-Feb-16 00:33N 59°56' E 005°30'1010.3
2017-Feb-15 23:33N 59°45' E 005°32'1110.9
2017-Feb-15 22:33N 59°37' E 005°18'1110.6
2017-Feb-15 21:32N 59°26' E 005°14'1111.2
2017-Feb-15 20:33N 59°16' E 005°20'1111.0
2017-Feb-15 19:33N 59°05' E 005°21'1111.2
2017-Feb-15 18:34N 58°54' E 005°23'1212.1
2017-Feb-15 17:33N 58°42' E 005°28'1211.8
2017-Feb-15 16:34N 58°31' E 005°38'1010.4
2017-Feb-15 15:33N 58°24' E 005°52'1010.4
2017-Feb-15 14:33N 58°17' E 006°07'1111.1
2017-Feb-15 13:33N 58°10' E 006°22'1111.1
2017-Feb-15 12:33N 58°03' E 006°38'10 9.9
2017-Feb-15 11:33N 57°58' E 006°55'1110.8
2017-Feb-15 10:33N 57°55' E 007°15'1111.0
2017-Feb-15 09:33N 57°55' E 007°36'1111.2
2017-Feb-15 08:33N 57°55' E 007°57'1110.8
2017-Feb-15 07:33N 57°54' E 008°17'2410.5
2017-Feb-15 05:18N 57°53' E 009°01'7 9.9
2017-Feb-15 04:33N 57°52' E 009°15'1010.4
2017-Feb-15 03:33N 57°52' E 009°35'1110.8
2017-Feb-15 02:33N 57°50' E 009°55'1211.6
2017-Feb-15 01:33N 57°49' E 010°17'1212.4
2017-Feb-15 00:33N 57°47' E 010°40'1010.2
2017-Feb-14 23:33N 57°37' E 010°42'1111.2
2017-Feb-14 22:33N 57°26' E 010°37'2 1.1
2017-Feb-14 20:22N 57°26' E 010°33'0 0.0
2017-Feb-14 19:31N 57°26' E 010°33'0 0.0
2017-Feb-14 18:28N 57°26' E 010°33'0 0.0
2017-Feb-14 17:31N 57°26' E 010°33'0 0.0
2017-Feb-14 16:31N 57°26' E 010°33'0 0.0
2017-Feb-14 15:28N 57°26' E 010°33'0 0.0
2017-Feb-14 14:13N 57°26' E 010°33'0 0.0
2017-Feb-14 13:28N 57°26' E 010°33'0 0.0
2017-Feb-14 12:22N 57°26' E 010°33'0 0.0
2017-Feb-14 11:25N 57°26' E 010°33'0 0.0
2017-Feb-14 10:28N 57°26' E 010°33'0 0.0
2017-Feb-14 09:19N 57°26' E 010°33'0 0.0
2017-Feb-14 08:16N 57°26' E 010°33'0 0.0
2017-Feb-14 07:22N 57°26' E 010°33'0 0.0
2017-Feb-14 06:31N 57°26' E 010°33'4 4.6
2017-Feb-14 05:33N 57°22' E 010°37'7 6.9
2017-Feb-14 04:33N 57°16' E 010°41'7 7.4
2017-Feb-14 03:33N 57°09' E 010°46'8 7.5
2017-Feb-14 02:33N 57°02' E 010°50'8 7.6
2017-Feb-14 01:33N 56°54' E 010°54'8 7.8
2017-Feb-14 00:33N 56°47' E 010°56'8 7.7
2017-Feb-13 23:33N 56°39' E 010°58'7 7.5
2017-Feb-13 22:33N 56°32' E 010°60'8 7.5
2017-Feb-13 21:33N 56°24' E 011°01'8 7.8
2017-Feb-13 20:33N 56°16' E 010°60'8 7.9
2017-Feb-13 19:31N 56°08' E 010°59'18 7.8
2017-Feb-13 17:16N 55°51' E 010°52'13 2.6
2017-Feb-13 12:11N 55°40' E 011°06'70 4.5
2017-Feb-12 20:31N 56°46' E 011°51'8 8.2
2017-Feb-12 19:30N 56°54' E 011°45'8 8.6
2017-Feb-12 18:32N 57°02' E 011°40'8 8.5
2017-Feb-12 17:33N 57°09' E 011°35'9 8.6
2017-Feb-12 16:34N 57°18' E 011°30'8 8.3
2017-Feb-12 15:34N 57°25' E 011°25'8 8.4
2017-Feb-12 14:34N 57°33' E 011°20'8 8.0
2017-Feb-12 13:34N 57°41' E 011°17'8 8.4
2017-Feb-12 12:34N 57°49' E 011°12'9 8.6
2017-Feb-12 11:33N 57°58' E 011°08'8 8.2
2017-Feb-12 10:34N 58°05' E 011°04'8 8.2
2017-Feb-12 09:33N 58°13' E 010°60'8 8.4
2017-Feb-12 08:34N 58°21' E 010°56'8 8.2
2017-Feb-12 07:33N 58°29' E 010°52'8 8.4
2017-Feb-12 06:34N 58°38' E 010°48'8 8.5
2017-Feb-12 05:34N 58°46' E 010°43'9 8.7
2017-Feb-12 04:34N 58°54' E 010°40'1010.3
2017-Feb-12 03:34N 59°04' E 010°38'1010.2
2017-Feb-12 02:34N 59°15' E 010°37'10 9.9
2017-Feb-12 01:34N 59°24' E 010°33'7 7.0
2017-Feb-12 00:34N 59°31' E 010°40'2 1.9
2017-Feb-11 23:34N 59°29' E 010°41'0 0.0
2017-Feb-11 22:34N 59°29' E 010°41'0 0.0
2017-Feb-11 21:34N 59°29' E 010°41'0 0.0
2017-Feb-11 20:34N 59°29' E 010°41'0 0.0
2017-Feb-11 19:34N 59°29' E 010°41'0 0.0
2017-Feb-11 18:34N 59°29' E 010°41'0 0.0
2017-Feb-11 17:34N 59°29' E 010°41'0 0.0
2017-Feb-11 16:34N 59°29' E 010°41'0 0.0
2017-Feb-11 15:34N 59°29' E 010°41'0 0.0
2017-Feb-11 14:34N 59°29' E 010°41'0 0.0
2017-Feb-11 13:34N 59°29' E 010°41'0 0.0
2017-Feb-11 12:34N 59°29' E 010°41'0 0.0
2017-Feb-11 11:34N 59°29' E 010°41'0 0.0
2017-Feb-11 10:34N 59°29' E 010°41'0 0.0
2017-Feb-11 09:34N 59°29' E 010°41'3 3.2
2017-Feb-11 08:34N 59°29' E 010°35'9 8.8
2017-Feb-11 07:34N 59°21' E 010°36'9 9.0
2017-Feb-11 06:34N 59°12' E 010°39'9 8.6
2017-Feb-11 05:34N 59°03' E 010°37'9 8.8
2017-Feb-11 04:33N 58°56' E 010°26'8 8.3
2017-Feb-11 03:33N 58°52' E 010°13'8 7.9
2017-Feb-11 02:34N 58°48' E 009°60'7 7.0
2017-Feb-11 01:33N 58°44' E 009°48'7 7.5
2017-Feb-11 00:33N 58°39' E 009°38'7 7.1
2017-Feb-10 23:33N 58°34' E 009°27'6 6.1
2017-Feb-10 22:34N 58°31' E 009°18'6 6.0
2017-Feb-10 21:32N 58°27' E 009°09'5 5.4
2017-Feb-10 20:33N 58°24' E 009°00'5 5.0
2017-Feb-10 19:33N 58°21' E 008°53'5 4.9
2017-Feb-10 18:33N 58°18' E 008°45'5 4.6
2017-Feb-10 17:34N 58°15' E 008°39'5 5.3
2017-Feb-10 16:34N 58°12' E 008°31'5 5.3
2017-Feb-10 15:34N 58°08' E 008°23'6 5.6
2017-Feb-10 14:34N 58°04' E 008°15'6 6.3
2017-Feb-10 13:33N 58°02' E 008°04'7 7.2
2017-Feb-10 12:34N 57°59' E 007°51'7 7.0
2017-Feb-10 11:33N 57°57' E 007°39'6 5.9
2017-Feb-10 10:33N 57°57' E 007°28'6 6.5
2017-Feb-10 09:33N 57°56' E 007°16'6 6.5
2017-Feb-10 08:33N 57°57' E 007°04'8 7.9
2017-Feb-10 07:33N 58°00' E 006°50'8 7.9
2017-Feb-10 06:33N 58°03' E 006°36'8 8.1
2017-Feb-10 05:33N 58°09' E 006°24'8 8.0
2017-Feb-10 04:33N 58°14' E 006°13'8 7.5
2017-Feb-10 03:33N 58°19' E 006°02'8 7.7
2017-Feb-10 02:34N 58°24' E 005°51'8 8.2
2017-Feb-10 01:33N 58°29' E 005°40'7 6.9
2017-Feb-10 00:33N 58°35' E 005°33'7 7.2
2017-Feb-09 23:34N 58°42' E 005°27'8 8.0
2017-Feb-09 22:34N 58°49' E 005°23'8 8.3
2017-Feb-09 21:34N 58°58' E 005°20'8 8.2
2017-Feb-09 20:33N 59°06' E 005°19'9 8.9
2017-Feb-09 19:34N 59°15' E 005°20'9 8.6
2017-Feb-09 18:33N 59°23' E 005°17'2 2.1
2017-Feb-09 17:32N 59°25' E 005°14'0 0.0
2017-Feb-09 16:32N 59°25' E 005°14'0 0.0
2017-Feb-09 15:32N 59°25' E 005°14'  
Track history (hours):
 
Tides and Currents Weather Stations Pressure Air Temp Water Temp Dewpoint Dewpoint Depression Visibility Wind Speed Wind Dir Waves Ship Positions

Dart

Last reported at 2017-Feb-19 14:33 UTC. Time now 2017-Feb-19 14:36 UTC.
Position N 68°56' E 017°05'.

Length 67 m; draft 3.8 m.

Type: Tanker. MMSI: 219416000.

Date/timePositionNaut miles runAvg speedWind from/ knotsBaromVisibWave heightAir tempDewpointWater temp
2017-Feb-19 14:33N 68°56' E 017°05'1111.1
2017-Feb-19 13:33N 68°46' E 016°49'1111.0
2017-Feb-19 12:33N 68°37' E 016°34'9 8.6
2017-Feb-19 11:33N 68°33' E 016°13'1010.5
2017-Feb-19 10:33N 68°23' E 016°01'1110.5
2017-Feb-19 09:33N 68°15' E 015°43'1110.7
2017-Feb-19 08:33N 68°08' E 015°21'1111.0
2017-Feb-19 07:33N 68°01' E 014°59'1110.6
2017-Feb-19 06:33N 67°54' E 014°38'1010.3
2017-Feb-19 05:32N 67°44' E 014°31'1110.9
2017-Feb-19 04:33N 67°33' E 014°30'1110.9
2017-Feb-19 03:33N 67°22' E 014°24'1110.8
2017-Feb-19 02:33N 67°13' E 014°09'1110.7
2017-Feb-19 01:33N 67°04' E 013°55'1010.1
2017-Feb-19 00:33N 66°58' E 013°34'9 9.4
2017-Feb-18 23:33N 66°51' E 013°19'1110.7
2017-Feb-18 22:33N 66°41' E 013°09'9 9.5
2017-Feb-18 21:33N 66°32' E 012°58'1010.3
2017-Feb-18 20:33N 66°22' E 012°58'1110.7
2017-Feb-18 19:33N 66°12' E 012°52'1010.0
2017-Feb-18 18:32N 66°03' E 012°38'1110.5
2017-Feb-18 17:33N 65°55' E 012°23'1010.5
2017-Feb-18 16:33N 65°44' E 012°18'1010.5
2017-Feb-18 15:33N 65°35' E 012°09'1010.4
2017-Feb-18 14:33N 65°26' E 011°56'9 9.0
2017-Feb-18 13:33N 65°17' E 011°58'1010.4
2017-Feb-18 12:33N 65°07' E 011°49'1010.2
2017-Feb-18 11:33N 64°59' E 011°35'1110.7
2017-Feb-18 10:33N 64°52' E 011°16'1110.5
2017-Feb-18 09:33N 64°44' E 010°59'1010.4
2017-Feb-18 08:33N 64°37' E 010°42'1110.6
2017-Feb-18 07:33N 64°28' E 010°29'9 9.4
2017-Feb-18 06:33N 64°19' E 010°24'1110.5
2017-Feb-18 05:33N 64°11' E 010°09'1110.8
2017-Feb-18 04:33N 64°03' E 009°50'10 9.6
2017-Feb-18 03:33N 63°54' E 009°46'1111.0
2017-Feb-18 02:33N 63°45' E 009°33'1010.4
2017-Feb-18 01:33N 63°35' E 009°25'1212.2
2017-Feb-18 00:33N 63°29' E 009°01'1211.8
2017-Feb-17 23:33N 63°24' E 008°37'1111.4
2017-Feb-17 22:33N 63°18' E 008°16'1211.6
2017-Feb-17 21:33N 63°12' E 007°53'1010.1
2017-Feb-17 20:33N 63°04' E 007°41'1 0.7
2017-Feb-17 19:33N 63°03' E 007°40'0 0.0
2017-Feb-17 18:33N 63°03' E 007°40'0 0.0
2017-Feb-17 17:33N 63°03' E 007°40'0 0.0
2017-Feb-17 16:33N 63°03' E 007°40'0 0.2
2017-Feb-17 15:33N 63°04' E 007°40'0 0.4
2017-Feb-17 14:31N 63°03' E 007°40'0 0.0
2017-Feb-17 13:31N 63°03' E 007°40'0 0.0
2017-Feb-17 12:31N 63°03' E 007°40'0 0.0
2017-Feb-17 11:31N 63°03' E 007°40'3 2.8
2017-Feb-17 10:33N 63°06' E 007°41'8 8.2
2017-Feb-17 09:33N 63°04' E 007°23'9 9.1
2017-Feb-17 08:33N 63°01' E 007°05'10 9.4
2017-Feb-17 07:33N 62°55' E 006°48'1010.1
2017-Feb-17 06:33N 62°47' E 006°36'10 9.8
2017-Feb-17 05:32N 62°39' E 006°23'10 9.8
2017-Feb-17 04:32N 62°31' E 006°09'8 8.3
2017-Feb-17 03:33N 62°23' E 006°06'9 8.8
2017-Feb-17 02:33N 62°15' E 005°57'1010.0
2017-Feb-17 01:32N 62°11' E 005°38'9 9.1
2017-Feb-17 00:33N 62°11' E 005°19'7 7.3
2017-Feb-16 23:34N 62°09' E 005°04'1010.0
2017-Feb-16 22:33N 61°59' E 005°10'8 8.4
2017-Feb-16 21:33N 61°51' E 005°16'9 9.5
2017-Feb-16 20:32N 61°45' E 005°00'8 8.2
2017-Feb-16 19:33N 61°37' E 005°03'1 0.9
2017-Feb-16 18:31N 61°37' E 005°04'0 0.0
2017-Feb-16 17:31N 61°37' E 005°04'0 0.0
2017-Feb-16 16:31N 61°37' E 005°04'0 0.0
2017-Feb-16 15:28N 61°37' E 005°04'0 0.0
2017-Feb-16 14:31N 61°37' E 005°04'0 0.0
2017-Feb-16 13:31N 61°37' E 005°04'0 0.0
2017-Feb-16 12:31N 61°37' E 005°04'1 0.8
2017-Feb-16 11:33N 61°37' E 005°03'8 7.8
2017-Feb-16 10:33N 61°30' E 004°59'10 9.9
2017-Feb-16 09:33N 61°20' E 005°03'7 7.4
2017-Feb-16 08:33N 61°13' E 004°59'10 9.6
2017-Feb-16 07:33N 61°03' E 004°57'1010.0
2017-Feb-16 06:33N 60°55' E 004°46'1110.7
2017-Feb-16 05:33N 60°44' E 004°48'1111.5
2017-Feb-16 04:33N 60°34' E 004°56'1111.0
2017-Feb-16 03:33N 60°24' E 005°08'9 9.6
2017-Feb-16 02:33N 60°15' E 005°10'1111.0
2017-Feb-16 01:33N 60°05' E 005°20'1110.5
2017-Feb-16 00:33N 59°56' E 005°30'1010.3
2017-Feb-15 23:33N 59°45' E 005°32'1110.9
2017-Feb-15 22:33N 59°37' E 005°18'1110.6
2017-Feb-15 21:32N 59°26' E 005°14'1111.2
2017-Feb-15 20:33N 59°16' E 005°20'1111.0
2017-Feb-15 19:33N 59°05' E 005°21'1111.2
2017-Feb-15 18:34N 58°54' E 005°23'1212.1
2017-Feb-15 17:33N 58°42' E 005°28'1211.8
2017-Feb-15 16:34N 58°31' E 005°38'1010.4
2017-Feb-15 15:33N 58°24' E 005°52'1010.4
2017-Feb-15 14:33N 58°17' E 006°07'1111.1
2017-Feb-15 13:33N 58°10' E 006°22'1111.1
2017-Feb-15 12:33N 58°03' E 006°38'10 9.9
2017-Feb-15 11:33N 57°58' E 006°55'1110.8
2017-Feb-15 10:33N 57°55' E 007°15'1111.0
2017-Feb-15 09:33N 57°55' E 007°36'1111.2
2017-Feb-15 08:33N 57°55' E 007°57'1110.8
2017-Feb-15 07:33N 57°54' E 008°17'2410.5
2017-Feb-15 05:18N 57°53' E 009°01'7 9.9
2017-Feb-15 04:33N 57°52' E 009°15'1010.4
2017-Feb-15 03:33N 57°52' E 009°35'1110.8
2017-Feb-15 02:33N 57°50' E 009°55'1211.6
2017-Feb-15 01:33N 57°49' E 010°17'1212.4
2017-Feb-15 00:33N 57°47' E 010°40'1010.2
2017-Feb-14 23:33N 57°37' E 010°42'1111.2
2017-Feb-14 22:33N 57°26' E 010°37'2 1.1
2017-Feb-14 20:22N 57°26' E 010°33'0 0.0
2017-Feb-14 19:31N 57°26' E 010°33'0 0.0
2017-Feb-14 18:28N 57°26' E 010°33'0 0.0
2017-Feb-14 17:31N 57°26' E 010°33'0 0.0
2017-Feb-14 16:31N 57°26' E 010°33'0 0.0
2017-Feb-14 15:28N 57°26' E 010°33'0 0.0
2017-Feb-14 14:13N 57°26' E 010°33'0 0.0
2017-Feb-14 13:28N 57°26' E 010°33'0 0.0
2017-Feb-14 12:22N 57°26' E 010°33'0 0.0
2017-Feb-14 11:25N 57°26' E 010°33'0 0.0
2017-Feb-14 10:28N 57°26' E 010°33'0 0.0
2017-Feb-14 09:19N 57°26' E 010°33'0 0.0
2017-Feb-14 08:16N 57°26' E 010°33'0 0.0
2017-Feb-14 07:22N 57°26' E 010°33'0 0.0
2017-Feb-14 06:31N 57°26' E 010°33'4 4.6
2017-Feb-14 05:33N 57°22' E 010°37'7 6.9
2017-Feb-14 04:33N 57°16' E 010°41'7 7.4
2017-Feb-14 03:33N 57°09' E 010°46'8 7.5
2017-Feb-14 02:33N 57°02' E 010°50'8 7.6
2017-Feb-14 01:33N 56°54' E 010°54'8 7.8
2017-Feb-14 00:33N 56°47' E 010°56'8 7.7
2017-Feb-13 23:33N 56°39' E 010°58'7 7.5
2017-Feb-13 22:33N 56°32' E 010°60'8 7.5
2017-Feb-13 21:33N 56°24' E 011°01'8 7.8
2017-Feb-13 20:33N 56°16' E 010°60'8 7.9
2017-Feb-13 19:31N 56°08' E 010°59'18 7.8
2017-Feb-13 17:16N 55°51' E 010°52'13 2.6
2017-Feb-13 12:11N 55°40' E 011°06'70 4.5
2017-Feb-12 20:31N 56°46' E 011°51'8 8.2
2017-Feb-12 19:30N 56°54' E 011°45'8 8.6
2017-Feb-12 18:32N 57°02' E 011°40'8 8.5
2017-Feb-12 17:33N 57°09' E 011°35'9 8.6
2017-Feb-12 16:34N 57°18' E 011°30'8 8.3
2017-Feb-12 15:34N 57°25' E 011°25'8 8.4
2017-Feb-12 14:34N 57°33' E 011°20'8 8.0
2017-Feb-12 13:34N 57°41' E 011°17'8 8.4
2017-Feb-12 12:34N 57°49' E 011°12'9 8.6
2017-Feb-12 11:33N 57°58' E 011°08'8 8.2
2017-Feb-12 10:34N 58°05' E 011°04'8 8.2
2017-Feb-12 09:33N 58°13' E 010°60'8 8.4
2017-Feb-12 08:34N 58°21' E 010°56'8 8.2
2017-Feb-12 07:33N 58°29' E 010°52'8 8.4
2017-Feb-12 06:34N 58°38' E 010°48'8 8.5
2017-Feb-12 05:34N 58°46' E 010°43'9 8.7
2017-Feb-12 04:34N 58°54' E 010°40'1010.3
2017-Feb-12 03:34N 59°04' E 010°38'1010.2
2017-Feb-12 02:34N 59°15' E 010°37'10 9.9
2017-Feb-12 01:34N 59°24' E 010°33'7 7.0
2017-Feb-12 00:34N 59°31' E 010°40'2 1.9
2017-Feb-11 23:34N 59°29' E 010°41'0 0.0
2017-Feb-11 22:34N 59°29' E 010°41'0 0.0
2017-Feb-11 21:34N 59°29' E 010°41'0 0.0
2017-Feb-11 20:34N 59°29' E 010°41'0 0.0
2017-Feb-11 19:34N 59°29' E 010°41'0 0.0
2017-Feb-11 18:34N 59°29' E 010°41'0 0.0
2017-Feb-11 17:34N 59°29' E 010°41'0 0.0
2017-Feb-11 16:34N 59°29' E 010°41'0 0.0
2017-Feb-11 15:34N 59°29' E 010°41'0 0.0
2017-Feb-11 14:34N 59°29' E 010°41'0 0.0
2017-Feb-11 13:34N 59°29' E 010°41'0 0.0
2017-Feb-11 12:34N 59°29' E 010°41'0 0.0
2017-Feb-11 11:34N 59°29' E 010°41'0 0.0
2017-Feb-11 10:34N 59°29' E 010°41'0 0.0
2017-Feb-11 09:34N 59°29' E 010°41'3 3.2
2017-Feb-11 08:34N 59°29' E 010°35'9 8.8
2017-Feb-11 07:34N 59°21' E 010°36'9 9.0
2017-Feb-11 06:34N 59°12' E 010°39'9 8.6
2017-Feb-11 05:34N 59°03' E 010°37'9 8.8
2017-Feb-11 04:33N 58°56' E 010°26'8 8.3
2017-Feb-11 03:33N 58°52' E 010°13'8 7.9
2017-Feb-11 02:34N 58°48' E 009°60'7 7.0
2017-Feb-11 01:33N 58°44' E 009°48'7 7.5
2017-Feb-11 00:33N 58°39' E 009°38'7 7.1
2017-Feb-10 23:33N 58°34' E 009°27'6 6.1
2017-Feb-10 22:34N 58°31' E 009°18'6 6.0
2017-Feb-10 21:32N 58°27' E 009°09'5 5.4
2017-Feb-10 20:33N 58°24' E 009°00'5 5.0
2017-Feb-10 19:33N 58°21' E 008°53'5 4.9
2017-Feb-10 18:33N 58°18' E 008°45'5 4.6
2017-Feb-10 17:34N 58°15' E 008°39'5 5.3
2017-Feb-10 16:34N 58°12' E 008°31'5 5.3
2017-Feb-10 15:34N 58°08' E 008°23'6 5.6
2017-Feb-10 14:34N 58°04' E 008°15'6 6.3
2017-Feb-10 13:33N 58°02' E 008°04'7 7.2
2017-Feb-10 12:34N 57°59' E 007°51'7 7.0
2017-Feb-10 11:33N 57°57' E 007°39'6 5.9
2017-Feb-10 10:33N 57°57' E 007°28'6 6.5
2017-Feb-10 09:33N 57°56' E 007°16'6 6.5
2017-Feb-10 08:33N 57°57' E 007°04'8 7.9
2017-Feb-10 07:33N 58°00' E 006°50'8 7.9
2017-Feb-10 06:33N 58°03' E 006°36'8 8.1
2017-Feb-10 05:33N 58°09' E 006°24'8 8.0
2017-Feb-10 04:33N 58°14' E 006°13'8 7.5
2017-Feb-10 03:33N 58°19' E 006°02'8 7.7
2017-Feb-10 02:34N 58°24' E 005°51'8 8.2
2017-Feb-10 01:33N 58°29' E 005°40'7 6.9
2017-Feb-10 00:33N 58°35' E 005°33'7 7.2
2017-Feb-09 23:34N 58°42' E 005°27'8 8.0
2017-Feb-09 22:34N 58°49' E 005°23'8 8.3
2017-Feb-09 21:34N 58°58' E 005°20'8 8.2
2017-Feb-09 20:33N 59°06' E 005°19'9 8.9
2017-Feb-09 19:34N 59°15' E 005°20'9 8.6
2017-Feb-09 18:33N 59°23' E 005°17'2 2.1
2017-Feb-09 17:32N 59°25' E 005°14'0 0.0
2017-Feb-09 16:32N 59°25' E 005°14'0 0.0
2017-Feb-09 15:32N 59°25' E 005°14'  

Dump ship's entire track history